sensor_id;sensor_type;location;lat;lon;timestamp;P1;durP1;ratioP1;P2;durP2;ratioP2
20824;SDS011;10573;50.936;6.978;2023-11-21T00:01:56;11.20;;;5.60;;
20824;SDS011;10573;50.936;6.978;2023-11-21T00:04:22;8.35;;;5.22;;
20824;SDS011;10573;50.936;6.978;2023-11-21T00:06:47;9.53;;;5.00;;
20824;SDS011;10573;50.936;6.978;2023-11-21T00:09:13;12.77;;;5.47;;
20824;SDS011;10573;50.936;6.978;2023-11-21T00:11:43;12.52;;;5.45;;
20824;SDS011;10573;50.936;6.978;2023-11-21T00:14:13;12.83;;;5.30;;
20824;SDS011;10573;50.936;6.978;2023-11-21T00:16:40;9.45;;;5.32;;
20824;SDS011;10573;50.936;6.978;2023-11-21T00:19:06;13.43;;;6.18;;
20824;SDS011;10573;50.936;6.978;2023-11-21T00:21:31;10.02;;;5.28;;
20824;SDS011;10573;50.936;6.978;2023-11-21T00:23:57;11.60;;;5.30;;
20824;SDS011;10573;50.936;6.978;2023-11-21T00:26:22;8.17;;;4.80;;
20824;SDS011;10573;50.936;6.978;2023-11-21T00:28:49;10.30;;;5.38;;
20824;SDS011;10573;50.936;6.978;2023-11-21T00:31:15;7.70;;;5.13;;
20824;SDS011;10573;50.936;6.978;2023-11-21T00:33:41;9.83;;;5.20;;
20824;SDS011;10573;50.936;6.978;2023-11-21T00:36:06;11.55;;;5.88;;
20824;SDS011;10573;50.936;6.978;2023-11-21T00:38:35;10.95;;;5.70;;
20824;SDS011;10573;50.936;6.978;2023-11-21T00:41:00;10.73;;;6.03;;
20824;SDS011;10573;50.936;6.978;2023-11-21T00:43:26;11.37;;;6.30;;
20824;SDS011;10573;50.936;6.978;2023-11-21T00:45:51;11.53;;;6.43;;
20824;SDS011;10573;50.936;6.978;2023-11-21T00:48:16;12.37;;;6.97;;
20824;SDS011;10573;50.936;6.978;2023-11-21T00:50:43;13.27;;;7.53;;
20824;SDS011;10573;50.936;6.978;2023-11-21T00:53:08;13.20;;;8.30;;
20824;SDS011;10573;50.936;6.978;2023-11-21T00:55:34;15.03;;;8.53;;
20824;SDS011;10573;50.936;6.978;2023-11-21T00:57:59;15.60;;;9.10;;
20824;SDS011;10573;50.936;6.978;2023-11-21T01:00:28;12.77;;;8.90;;
20824;SDS011;10573;50.936;6.978;2023-11-21T01:02:53;17.13;;;9.67;;
20824;SDS011;10573;50.936;6.978;2023-11-21T01:05:18;15.03;;;9.43;;
20824;SDS011;10573;50.936;6.978;2023-11-21T01:07:45;16.92;;;9.98;;
20824;SDS011;10573;50.936;6.978;2023-11-21T01:10:10;16.03;;;9.77;;
20824;SDS011;10573;50.936;6.978;2023-11-21T01:12:38;18.63;;;9.70;;
20824;SDS011;10573;50.936;6.978;2023-11-21T01:15:04;17.98;;;9.90;;
20824;SDS011;10573;50.936;6.978;2023-11-21T01:17:34;16.92;;;10.05;;
20824;SDS011;10573;50.936;6.978;2023-11-21T01:20:00;19.05;;;10.32;;
20824;SDS011;10573;50.936;6.978;2023-11-21T01:22:26;17.67;;;10.52;;
20824;SDS011;10573;50.936;6.978;2023-11-21T01:24:53;19.27;;;10.60;;
20824;SDS011;10573;50.936;6.978;2023-11-21T01:27:18;18.20;;;10.00;;
20824;SDS011;10573;50.936;6.978;2023-11-21T01:29:44;16.30;;;9.83;;
20824;SDS011;10573;50.936;6.978;2023-11-21T01:32:10;16.92;;;9.75;;
20824;SDS011;10573;50.936;6.978;2023-11-21T01:34:35;17.80;;;10.05;;
20824;SDS011;10573;50.936;6.978;2023-11-21T01:37:01;18.55;;;10.25;;
20824;SDS011;10573;50.936;6.978;2023-11-21T01:39:29;17.42;;;10.10;;
20824;SDS011;10573;50.936;6.978;2023-11-21T01:41:55;17.83;;;10.13;;
20824;SDS011;10573;50.936;6.978;2023-11-21T01:44:23;17.05;;;10.10;;
20824;SDS011;10573;50.936;6.978;2023-11-21T01:46:49;18.17;;;9.97;;
20824;SDS011;10573;50.936;6.978;2023-11-21T01:49:16;17.45;;;9.75;;
20824;SDS011;10573;50.936;6.978;2023-11-21T01:51:43;18.65;;;10.73;;
20824;SDS011;10573;50.936;6.978;2023-11-21T01:54:12;18.23;;;10.17;;
20824;SDS011;10573;50.936;6.978;2023-11-21T01:56:37;18.60;;;10.10;;
20824;SDS011;10573;50.936;6.978;2023-11-21T01:59:04;15.68;;;10.27;;
20824;SDS011;10573;50.936;6.978;2023-11-21T02:01:30;18.20;;;10.68;;
20824;SDS011;10573;50.936;6.978;2023-11-21T02:03:56;20.13;;;10.25;;
20824;SDS011;10573;50.936;6.978;2023-11-21T02:06:21;17.17;;;9.93;;
20824;SDS011;10573;50.936;6.978;2023-11-21T02:08:47;16.02;;;9.98;;
20824;SDS011;10573;50.936;6.978;2023-11-21T02:11:12;16.70;;;8.83;;
20824;SDS011;10573;50.936;6.978;2023-11-21T02:13:38;18.67;;;10.57;;
20824;SDS011;10573;50.936;6.978;2023-11-21T02:16:08;16.27;;;9.35;;
20824;SDS011;10573;50.936;6.978;2023-11-21T02:18:38;16.73;;;9.55;;
20824;SDS011;10573;50.936;6.978;2023-11-21T02:21:04;18.55;;;9.88;;
20824;SDS011;10573;50.936;6.978;2023-11-21T02:23:30;21.17;;;9.95;;
20824;SDS011;10573;50.936;6.978;2023-11-21T02:25:55;15.25;;;10.15;;
20824;SDS011;10573;50.936;6.978;2023-11-21T02:28:21;19.80;;;10.37;;
20824;SDS011;10573;50.936;6.978;2023-11-21T02:30:51;18.15;;;10.88;;
20824;SDS011;10573;50.936;6.978;2023-11-21T02:33:21;18.63;;;10.77;;
20824;SDS011;10573;50.936;6.978;2023-11-21T02:35:46;20.30;;;11.60;;
20824;SDS011;10573;50.936;6.978;2023-11-21T02:38:12;23.17;;;11.90;;
20824;SDS011;10573;50.936;6.978;2023-11-21T02:40:37;17.70;;;11.50;;
20824;SDS011;10573;50.936;6.978;2023-11-21T02:43:02;18.87;;;11.60;;
20824;SDS011;10573;50.936;6.978;2023-11-21T02:45:30;21.13;;;12.37;;
20824;SDS011;10573;50.936;6.978;2023-11-21T02:47:57;20.83;;;12.30;;
20824;SDS011;10573;50.936;6.978;2023-11-21T02:50:23;23.35;;;13.55;;
20824;SDS011;10573;50.936;6.978;2023-11-21T02:52:49;24.03;;;13.17;;
20824;SDS011;10573;50.936;6.978;2023-11-21T02:55:14;26.00;;;14.27;;
20824;SDS011;10573;50.936;6.978;2023-11-21T02:57:40;22.38;;;13.50;;
20824;SDS011;10573;50.936;6.978;2023-11-21T03:00:05;22.60;;;12.87;;
20824;SDS011;10573;50.936;6.978;2023-11-21T03:02:40;24.75;;;13.48;;
20824;SDS011;10573;50.936;6.978;2023-11-21T03:05:06;26.00;;;13.52;;
20824;SDS011;10573;50.936;6.978;2023-11-21T03:07:33;23.38;;;12.80;;
20824;SDS011;10573;50.936;6.978;2023-11-21T03:09:59;20.80;;;12.90;;
20824;SDS011;10573;50.936;6.978;2023-11-21T03:12:24;22.27;;;13.00;;
20824;SDS011;10573;50.936;6.978;2023-11-21T03:14:50;24.13;;;12.27;;
20824;SDS011;10573;50.936;6.978;2023-11-21T03:17:15;21.67;;;12.87;;
20824;SDS011;10573;50.936;6.978;2023-11-21T03:19:41;24.03;;;13.67;;
20824;SDS011;10573;50.936;6.978;2023-11-21T03:22:06;23.93;;;13.87;;
20824;SDS011;10573;50.936;6.978;2023-11-21T03:24:32;22.53;;;13.33;;
20824;SDS011;10573;50.936;6.978;2023-11-21T03:26:57;30.75;;;14.80;;
20824;SDS011;10573;50.936;6.978;2023-11-21T03:29:23;26.43;;;13.70;;
20824;SDS011;10573;50.936;6.978;2023-11-21T03:31:48;26.15;;;13.57;;
20824;SDS011;10573;50.936;6.978;2023-11-21T03:34:26;24.50;;;13.30;;
20824;SDS011;10573;50.936;6.978;2023-11-21T03:36:52;25.20;;;13.20;;
20824;SDS011;10573;50.936;6.978;2023-11-21T03:39:21;21.37;;;12.17;;
20824;SDS011;10573;50.936;6.978;2023-11-21T03:41:47;21.25;;;12.15;;
20824;SDS011;10573;50.936;6.978;2023-11-21T03:44:13;22.15;;;11.90;;
20824;SDS011;10573;50.936;6.978;2023-11-21T03:46:39;24.77;;;12.98;;
20824;SDS011;10573;50.936;6.978;2023-11-21T03:49:04;24.83;;;13.07;;
20824;SDS011;10573;50.936;6.978;2023-11-21T03:51:30;22.43;;;12.77;;
20824;SDS011;10573;50.936;6.978;2023-11-21T03:53:57;23.15;;;13.07;;
20824;SDS011;10573;50.936;6.978;2023-11-21T03:56:23;22.03;;;12.37;;
20824;SDS011;10573;50.936;6.978;2023-11-21T03:58:48;22.37;;;12.70;;
20824;SDS011;10573;50.936;6.978;2023-11-21T04:01:23;27.10;;;14.70;;
20824;SDS011;10573;50.936;6.978;2023-11-21T04:03:49;26.67;;;14.27;;
20824;SDS011;10573;50.936;6.978;2023-11-21T04:06:15;27.27;;;13.85;;
20824;SDS011;10573;50.936;6.978;2023-11-21T04:08:42;22.75;;;14.23;;
20824;SDS011;10573;50.936;6.978;2023-11-21T04:11:11;23.75;;;13.93;;
20824;SDS011;10573;50.936;6.978;2023-11-21T04:13:40;27.23;;;14.43;;
20824;SDS011;10573;50.936;6.978;2023-11-21T04:16:07;22.80;;;13.68;;
20824;SDS011;10573;50.936;6.978;2023-11-21T04:18:35;24.98;;;14.40;;
20824;SDS011;10573;50.936;6.978;2023-11-21T04:21:01;24.52;;;14.60;;
20824;SDS011;10573;50.936;6.978;2023-11-21T04:23:28;27.60;;;15.52;;
20824;SDS011;10573;50.936;6.978;2023-11-21T04:25:54;25.17;;;15.32;;
20824;SDS011;10573;50.936;6.978;2023-11-21T04:28:22;21.65;;;14.48;;
20824;SDS011;10573;50.936;6.978;2023-11-21T04:30:48;27.33;;;14.68;;
20824;SDS011;10573;50.936;6.978;2023-11-21T04:33:13;26.33;;;15.27;;
20824;SDS011;10573;50.936;6.978;2023-11-21T04:35:38;27.87;;;15.03;;
20824;SDS011;10573;50.936;6.978;2023-11-21T04:38:04;25.08;;;15.60;;
20824;SDS011;10573;50.936;6.978;2023-11-21T04:40:29;26.63;;;15.35;;
20824;SDS011;10573;50.936;6.978;2023-11-21T04:42:55;25.57;;;15.17;;
20824;SDS011;10573;50.936;6.978;2023-11-21T04:45:22;24.23;;;15.43;;
20824;SDS011;10573;50.936;6.978;2023-11-21T04:47:47;26.97;;;15.43;;
20824;SDS011;10573;50.936;6.978;2023-11-21T04:50:13;27.50;;;15.45;;
20824;SDS011;10573;50.936;6.978;2023-11-21T04:52:38;24.40;;;15.13;;
20824;SDS011;10573;50.936;6.978;2023-11-21T04:55:04;27.27;;;15.90;;
20824;SDS011;10573;50.936;6.978;2023-11-21T04:57:31;30.10;;;16.55;;
20824;SDS011;10573;50.936;6.978;2023-11-21T04:59:57;23.58;;;15.73;;
20824;SDS011;10573;50.936;6.978;2023-11-21T05:02:23;25.20;;;16.43;;
20824;SDS011;10573;50.936;6.978;2023-11-21T05:04:48;26.67;;;16.07;;
20824;SDS011;10573;50.936;6.978;2023-11-21T05:07:14;25.83;;;16.07;;
20824;SDS011;10573;50.936;6.978;2023-11-21T05:09:42;25.13;;;15.45;;
20824;SDS011;10573;50.936;6.978;2023-11-21T05:12:14;26.80;;;15.75;;
20824;SDS011;10573;50.936;6.978;2023-11-21T05:14:39;25.57;;;15.60;;
20824;SDS011;10573;50.936;6.978;2023-11-21T05:17:05;28.53;;;15.93;;
20824;SDS011;10573;50.936;6.978;2023-11-21T05:19:30;29.00;;;16.00;;
20824;SDS011;10573;50.936;6.978;2023-11-21T05:21:57;26.70;;;15.20;;
20824;SDS011;10573;50.936;6.978;2023-11-21T05:24:24;28.60;;;14.82;;
20824;SDS011;10573;50.936;6.978;2023-11-21T05:26:49;29.10;;;15.57;;
20824;SDS011;10573;50.936;6.978;2023-11-21T05:29:14;26.90;;;14.67;;
20824;SDS011;10573;50.936;6.978;2023-11-21T05:31:40;27.80;;;14.63;;
20824;SDS011;10573;50.936;6.978;2023-11-21T05:34:05;31.42;;;15.15;;
20824;SDS011;10573;50.936;6.978;2023-11-21T05:36:31;27.77;;;15.07;;
20824;SDS011;10573;50.936;6.978;2023-11-21T05:38:56;27.70;;;14.70;;
20824;SDS011;10573;50.936;6.978;2023-11-21T05:41:22;29.65;;;15.85;;
20824;SDS011;10573;50.936;6.978;2023-11-21T05:43:48;28.40;;;15.48;;
20824;SDS011;10573;50.936;6.978;2023-11-21T05:46:13;27.23;;;14.57;;
20824;SDS011;10573;50.936;6.978;2023-11-21T05:48:39;26.60;;;14.10;;
20824;SDS011;10573;50.936;6.978;2023-11-21T05:51:06;26.40;;;14.60;;
20824;SDS011;10573;50.936;6.978;2023-11-21T05:53:32;26.50;;;14.65;;
20824;SDS011;10573;50.936;6.978;2023-11-21T05:55:57;24.10;;;13.97;;
20824;SDS011;10573;50.936;6.978;2023-11-21T05:58:22;27.10;;;14.73;;
20824;SDS011;10573;50.936;6.978;2023-11-21T06:00:48;28.42;;;15.52;;
20824;SDS011;10573;50.936;6.978;2023-11-21T06:03:14;26.30;;;13.60;;
20824;SDS011;10573;50.936;6.978;2023-11-21T06:05:39;22.57;;;13.90;;
20824;SDS011;10573;50.936;6.978;2023-11-21T06:08:05;23.40;;;13.70;;
20824;SDS011;10573;50.936;6.978;2023-11-21T06:10:31;28.77;;;13.13;;
20824;SDS011;10573;50.936;6.978;2023-11-21T06:12:57;24.97;;;13.03;;
20824;SDS011;10573;50.936;6.978;2023-11-21T06:15:24;24.23;;;12.82;;
20824;SDS011;10573;50.936;6.978;2023-11-21T06:17:49;22.20;;;13.10;;
20824;SDS011;10573;50.936;6.978;2023-11-21T06:20:17;23.65;;;13.02;;
20824;SDS011;10573;50.936;6.978;2023-11-21T06:22:46;25.02;;;13.27;;
20824;SDS011;10573;50.936;6.978;2023-11-21T06:25:13;26.15;;;12.88;;
20824;SDS011;10573;50.936;6.978;2023-11-21T06:27:43;23.75;;;13.68;;
20824;SDS011;10573;50.936;6.978;2023-11-21T06:30:16;24.30;;;13.80;;
20824;SDS011;10573;50.936;6.978;2023-11-21T06:32:44;24.20;;;14.30;;
20824;SDS011;10573;50.936;6.978;2023-11-21T06:35:11;23.80;;;13.15;;
20824;SDS011;10573;50.936;6.978;2023-11-21T06:37:37;27.40;;;13.57;;
20824;SDS011;10573;50.936;6.978;2023-11-21T06:40:02;25.13;;;14.40;;
20824;SDS011;10573;50.936;6.978;2023-11-21T06:42:32;24.15;;;14.48;;
20824;SDS011;10573;50.936;6.978;2023-11-21T06:44:58;28.40;;;13.98;;
20824;SDS011;10573;50.936;6.978;2023-11-21T06:47:24;24.77;;;14.10;;
20824;SDS011;10573;50.936;6.978;2023-11-21T06:49:50;24.73;;;13.93;;
20824;SDS011;10573;50.936;6.978;2023-11-21T06:52:17;25.30;;;14.20;;
20824;SDS011;10573;50.936;6.978;2023-11-21T06:54:43;26.35;;;13.93;;
20824;SDS011;10573;50.936;6.978;2023-11-21T06:57:09;28.00;;;13.95;;
20824;SDS011;10573;50.936;6.978;2023-11-21T06:59:34;25.40;;;14.07;;
20824;SDS011;10573;50.936;6.978;2023-11-21T07:01:59;24.70;;;14.63;;
20824;SDS011;10573;50.936;6.978;2023-11-21T07:04:25;22.03;;;14.57;;
20824;SDS011;10573;50.936;6.978;2023-11-21T07:06:51;25.92;;;14.13;;
20824;SDS011;10573;50.936;6.978;2023-11-21T07:09:17;32.20;;;16.42;;
20824;SDS011;10573;50.936;6.978;2023-11-21T07:11:42;30.23;;;15.25;;
20824;SDS011;10573;50.936;6.978;2023-11-21T07:14:08;31.13;;;15.93;;
20824;SDS011;10573;50.936;6.978;2023-11-21T07:16:37;27.50;;;15.43;;
20824;SDS011;10573;50.936;6.978;2023-11-21T07:19:06;25.80;;;15.75;;
20824;SDS011;10573;50.936;6.978;2023-11-21T07:21:35;32.10;;;16.40;;
20824;SDS011;10573;50.936;6.978;2023-11-21T07:24:01;30.30;;;16.65;;
20824;SDS011;10573;50.936;6.978;2023-11-21T07:26:28;28.85;;;17.25;;
20824;SDS011;10573;50.936;6.978;2023-11-21T07:28:54;31.33;;;17.52;;
20824;SDS011;10573;50.936;6.978;2023-11-21T07:31:20;32.65;;;18.27;;
20824;SDS011;10573;50.936;6.978;2023-11-21T07:33:46;36.87;;;18.20;;
20824;SDS011;10573;50.936;6.978;2023-11-21T07:36:12;34.47;;;18.42;;
20824;SDS011;10573;50.936;6.978;2023-11-21T07:38:38;30.02;;;18.38;;
20824;SDS011;10573;50.936;6.978;2023-11-21T07:41:05;34.42;;;19.58;;
20824;SDS011;10573;50.936;6.978;2023-11-21T07:43:30;36.30;;;19.25;;
20824;SDS011;10573;50.936;6.978;2023-11-21T07:46:00;32.60;;;18.85;;
20824;SDS011;10573;50.936;6.978;2023-11-21T07:48:28;34.45;;;19.45;;
20824;SDS011;10573;50.936;6.978;2023-11-21T07:50:54;35.63;;;19.48;;
20824;SDS011;10573;50.936;6.978;2023-11-21T07:53:19;33.58;;;19.35;;
20824;SDS011;10573;50.936;6.978;2023-11-21T07:55:44;32.23;;;19.13;;
20824;SDS011;10573;50.936;6.978;2023-11-21T07:58:12;35.55;;;18.80;;
20824;SDS011;10573;50.936;6.978;2023-11-21T08:00:38;37.43;;;19.83;;
20824;SDS011;10573;50.936;6.978;2023-11-21T08:03:04;38.50;;;20.45;;
20824;SDS011;10573;50.936;6.978;2023-11-21T08:05:30;38.35;;;20.08;;
20824;SDS011;10573;50.936;6.978;2023-11-21T08:07:56;36.15;;;19.95;;
20824;SDS011;10573;50.936;6.978;2023-11-21T08:10:22;41.27;;;21.93;;
20824;SDS011;10573;50.936;6.978;2023-11-21T08:12:47;36.53;;;20.90;;
20824;SDS011;10573;50.936;6.978;2023-11-21T08:15:13;41.67;;;21.17;;
20824;SDS011;10573;50.936;6.978;2023-11-21T08:17:39;43.17;;;21.15;;
20824;SDS011;10573;50.936;6.978;2023-11-21T08:20:05;44.20;;;21.58;;
20824;SDS011;10573;50.936;6.978;2023-11-21T08:22:33;42.33;;;21.63;;
20824;SDS011;10573;50.936;6.978;2023-11-21T08:24:59;40.37;;;21.23;;
20824;SDS011;10573;50.936;6.978;2023-11-21T08:27:24;45.23;;;24.17;;
20824;SDS011;10573;50.936;6.978;2023-11-21T08:29:50;41.10;;;21.73;;
20824;SDS011;10573;50.936;6.978;2023-11-21T08:32:17;41.08;;;21.70;;
20824;SDS011;10573;50.936;6.978;2023-11-21T08:34:43;48.33;;;23.23;;
20824;SDS011;10573;50.936;6.978;2023-11-21T08:37:10;42.60;;;22.50;;
20824;SDS011;10573;50.936;6.978;2023-11-21T08:39:38;42.97;;;22.47;;
20824;SDS011;10573;50.936;6.978;2023-11-21T08:42:04;44.40;;;23.70;;
20824;SDS011;10573;50.936;6.978;2023-11-21T08:44:29;43.03;;;23.67;;
20824;SDS011;10573;50.936;6.978;2023-11-21T08:46:55;43.67;;;22.70;;
20824;SDS011;10573;50.936;6.978;2023-11-21T08:49:21;47.60;;;23.48;;
20824;SDS011;10573;50.936;6.978;2023-11-21T08:51:46;45.70;;;22.50;;
20824;SDS011;10573;50.936;6.978;2023-11-21T08:54:11;44.85;;;22.92;;
20824;SDS011;10573;50.936;6.978;2023-11-21T08:56:37;49.70;;;23.17;;
20824;SDS011;10573;50.936;6.978;2023-11-21T08:59:02;48.47;;;23.33;;
20824;SDS011;10573;50.936;6.978;2023-11-21T09:01:31;49.80;;;23.45;;
20824;SDS011;10573;50.936;6.978;2023-11-21T09:03:57;46.20;;;22.97;;
20824;SDS011;10573;50.936;6.978;2023-11-21T09:06:23;50.30;;;22.60;;
20824;SDS011;10573;50.936;6.978;2023-11-21T09:08:49;49.22;;;23.60;;
20824;SDS011;10573;50.936;6.978;2023-11-21T09:11:15;58.63;;;29.05;;
20824;SDS011;10573;50.936;6.978;2023-11-21T09:13:40;43.70;;;22.87;;
20824;SDS011;10573;50.936;6.978;2023-11-21T09:16:06;40.70;;;23.05;;
20824;SDS011;10573;50.936;6.978;2023-11-21T09:18:32;45.70;;;24.03;;
20824;SDS011;10573;50.936;6.978;2023-11-21T09:20:57;42.43;;;22.37;;
20824;SDS011;10573;50.936;6.978;2023-11-21T09:23:23;50.47;;;23.98;;
20824;SDS011;10573;50.936;6.978;2023-11-21T09:25:49;42.72;;;23.50;;
20824;SDS011;10573;50.936;6.978;2023-11-21T09:28:16;45.95;;;23.80;;
20824;SDS011;10573;50.936;6.978;2023-11-21T09:30:42;46.55;;;23.23;;
20824;SDS011;10573;50.936;6.978;2023-11-21T09:33:08;47.70;;;23.27;;
20824;SDS011;10573;50.936;6.978;2023-11-21T09:35:37;47.10;;;23.70;;
20824;SDS011;10573;50.936;6.978;2023-11-21T09:38:03;46.80;;;23.83;;
20824;SDS011;10573;50.936;6.978;2023-11-21T09:40:30;54.00;;;24.53;;
20824;SDS011;10573;50.936;6.978;2023-11-21T09:42:57;48.13;;;24.42;;
20824;SDS011;10573;50.936;6.978;2023-11-21T09:45:27;49.97;;;25.92;;
20824;SDS011;10573;50.936;6.978;2023-11-21T09:47:57;46.77;;;25.37;;
20824;SDS011;10573;50.936;6.978;2023-11-21T09:50:23;49.65;;;25.05;;
20824;SDS011;10573;50.936;6.978;2023-11-21T09:55:18;52.60;;;26.23;;
20824;SDS011;10573;50.936;6.978;2023-11-21T09:57:46;54.65;;;26.42;;
20824;SDS011;10573;50.936;6.978;2023-11-21T10:00:13;50.70;;;26.00;;
20824;SDS011;10573;50.936;6.978;2023-11-21T10:02:42;53.22;;;24.77;;
20824;SDS011;10573;50.936;6.978;2023-11-21T10:05:08;46.35;;;25.40;;
20824;SDS011;10573;50.936;6.978;2023-11-21T10:07:36;55.88;;;30.77;;
20824;SDS011;10573;50.936;6.978;2023-11-21T10:10:05;44.15;;;23.63;;
20824;SDS011;10573;50.936;6.978;2023-11-21T10:12:33;44.92;;;23.05;;
20824;SDS011;10573;50.936;6.978;2023-11-21T10:15:00;42.55;;;22.23;;
20824;SDS011;10573;50.936;6.978;2023-11-21T10:17:28;45.17;;;23.30;;
20824;SDS011;10573;50.936;6.978;2023-11-21T10:20:01;44.43;;;23.93;;
20824;SDS011;10573;50.936;6.978;2023-11-21T10:22:31;44.07;;;23.77;;
20824;SDS011;10573;50.936;6.978;2023-11-21T10:24:56;46.97;;;24.40;;
20824;SDS011;10573;50.936;6.978;2023-11-21T10:27:22;43.92;;;24.48;;
20824;SDS011;10573;50.936;6.978;2023-11-21T10:29:50;46.25;;;24.02;;
20824;SDS011;10573;50.936;6.978;2023-11-21T10:32:16;45.92;;;27.42;;
20824;SDS011;10573;50.936;6.978;2023-11-21T10:34:41;40.87;;;22.63;;
20824;SDS011;10573;50.936;6.978;2023-11-21T10:37:13;44.20;;;23.30;;
20824;SDS011;10573;50.936;6.978;2023-11-21T10:39:40;46.58;;;24.00;;
20824;SDS011;10573;50.936;6.978;2023-11-21T10:42:09;45.55;;;24.25;;
20824;SDS011;10573;50.936;6.978;2023-11-21T10:44:35;43.28;;;24.13;;
20824;SDS011;10573;50.936;6.978;2023-11-21T10:47:00;44.67;;;23.50;;
20824;SDS011;10573;50.936;6.978;2023-11-21T10:49:27;42.92;;;23.67;;
20824;SDS011;10573;50.936;6.978;2023-11-21T10:51:53;44.75;;;23.75;;
20824;SDS011;10573;50.936;6.978;2023-11-21T10:54:20;41.33;;;22.75;;
20824;SDS011;10573;50.936;6.978;2023-11-21T10:56:46;45.37;;;23.90;;
20824;SDS011;10573;50.936;6.978;2023-11-21T10:59:16;47.42;;;22.48;;
20824;SDS011;10573;50.936;6.978;2023-11-21T11:01:42;48.97;;;24.67;;
20824;SDS011;10573;50.936;6.978;2023-11-21T11:04:11;37.97;;;22.05;;
20824;SDS011;10573;50.936;6.978;2023-11-21T11:06:42;43.72;;;22.42;;
20824;SDS011;10573;50.936;6.978;2023-11-21T11:09:12;39.78;;;21.92;;
20824;SDS011;10573;50.936;6.978;2023-11-21T11:11:42;44.85;;;23.85;;
20824;SDS011;10573;50.936;6.978;2023-11-21T11:14:10;50.40;;;25.10;;
20824;SDS011;10573;50.936;6.978;2023-11-21T11:16:36;48.15;;;23.95;;
20824;SDS011;10573;50.936;6.978;2023-11-21T11:19:06;49.57;;;26.10;;
20824;SDS011;10573;50.936;6.978;2023-11-21T11:24:54;54.38;;;26.77;;
20824;SDS011;10573;50.936;6.978;2023-11-21T11:27:51;50.40;;;26.13;;
20824;SDS011;10573;50.936;6.978;2023-11-21T11:36:06;55.75;;;27.77;;
20824;SDS011;10573;50.936;6.978;2023-11-21T11:38:45;49.08;;;25.52;;
20824;SDS011;10573;50.936;6.978;2023-11-21T11:41:11;52.45;;;26.45;;
20824;SDS011;10573;50.936;6.978;2023-11-21T11:43:37;51.38;;;25.75;;
20824;SDS011;10573;50.936;6.978;2023-11-21T11:46:09;53.28;;;25.05;;
20824;SDS011;10573;50.936;6.978;2023-11-21T11:48:38;51.53;;;25.40;;
20824;SDS011;10573;50.936;6.978;2023-11-21T11:51:14;47.20;;;23.42;;
20824;SDS011;10573;50.936;6.978;2023-11-21T11:53:42;48.92;;;24.15;;
20824;SDS011;10573;50.936;6.978;2023-11-21T11:58:56;48.05;;;23.02;;
20824;SDS011;10573;50.936;6.978;2023-11-21T12:01:24;51.55;;;23.95;;
20824;SDS011;10573;50.936;6.978;2023-11-21T12:04:24;50.78;;;26.33;;
20824;SDS011;10573;50.936;6.978;2023-11-21T12:06:45;46.90;;;23.67;;
20824;SDS011;10573;50.936;6.978;2023-11-21T12:09:32;48.00;;;23.55;;
20824;SDS011;10573;50.936;6.978;2023-11-21T12:11:57;45.08;;;22.33;;
20824;SDS011;10573;50.936;6.978;2023-11-21T12:14:23;41.95;;;20.80;;
20824;SDS011;10573;50.936;6.978;2023-11-21T12:16:49;50.65;;;23.77;;
20824;SDS011;10573;50.936;6.978;2023-11-21T12:19:16;46.43;;;23.10;;
20824;SDS011;10573;50.936;6.978;2023-11-21T12:21:42;48.57;;;21.40;;
20824;SDS011;10573;50.936;6.978;2023-11-21T12:24:09;44.92;;;21.13;;
20824;SDS011;10573;50.936;6.978;2023-11-21T12:26:35;54.13;;;24.35;;
20824;SDS011;10573;50.936;6.978;2023-11-21T12:29:04;51.95;;;23.55;;
20824;SDS011;10573;50.936;6.978;2023-11-21T12:31:32;51.65;;;24.08;;
20824;SDS011;10573;50.936;6.978;2023-11-21T12:33:59;49.03;;;24.13;;
20824;SDS011;10573;50.936;6.978;2023-11-21T12:36:25;51.07;;;24.60;;
20824;SDS011;10573;50.936;6.978;2023-11-21T12:38:51;49.00;;;24.52;;
20824;SDS011;10573;50.936;6.978;2023-11-21T12:41:17;46.87;;;23.57;;
20824;SDS011;10573;50.936;6.978;2023-11-21T12:43:43;45.67;;;24.40;;
20824;SDS011;10573;50.936;6.978;2023-11-21T12:46:09;51.78;;;24.00;;
20824;SDS011;10573;50.936;6.978;2023-11-21T12:48:39;47.80;;;22.63;;
20824;SDS011;10573;50.936;6.978;2023-11-21T12:51:09;46.95;;;22.35;;
20824;SDS011;10573;50.936;6.978;2023-11-21T12:53:37;42.63;;;22.23;;
20824;SDS011;10573;50.936;6.978;2023-11-21T12:56:07;45.70;;;23.13;;
20824;SDS011;10573;50.936;6.978;2023-11-21T12:58:34;44.53;;;21.25;;
20824;SDS011;10573;50.936;6.978;2023-11-21T13:01:06;47.28;;;22.98;;
20824;SDS011;10573;50.936;6.978;2023-11-21T13:03:40;45.17;;;22.50;;
20824;SDS011;10573;50.936;6.978;2023-11-21T13:06:07;47.28;;;23.38;;
20824;SDS011;10573;50.936;6.978;2023-11-21T13:08:33;46.88;;;23.15;;
20824;SDS011;10573;50.936;6.978;2023-11-21T13:10:59;48.03;;;23.50;;
20824;SDS011;10573;50.936;6.978;2023-11-21T13:13:25;43.88;;;21.33;;
20824;SDS011;10573;50.936;6.978;2023-11-21T13:15:53;42.90;;;23.05;;
20824;SDS011;10573;50.936;6.978;2023-11-21T13:18:26;47.10;;;22.40;;
20824;SDS011;10573;50.936;6.978;2023-11-21T13:20:53;42.70;;;22.52;;
20824;SDS011;10573;50.936;6.978;2023-11-21T13:23:23;47.17;;;22.30;;
20824;SDS011;10573;50.936;6.978;2023-11-21T13:25:49;50.65;;;22.52;;
20824;SDS011;10573;50.936;6.978;2023-11-21T13:28:16;44.95;;;22.08;;
20824;SDS011;10573;50.936;6.978;2023-11-21T13:30:43;48.60;;;22.17;;
20824;SDS011;10573;50.936;6.978;2023-11-21T13:33:09;52.30;;;24.50;;
20824;SDS011;10573;50.936;6.978;2023-11-21T13:35:42;50.22;;;23.77;;
20824;SDS011;10573;50.936;6.978;2023-11-21T13:38:16;46.92;;;23.10;;
20824;SDS011;10573;50.936;6.978;2023-11-21T13:40:47;52.13;;;23.90;;
20824;SDS011;10573;50.936;6.978;2023-11-21T13:43:14;46.20;;;22.85;;
20824;SDS011;10573;50.936;6.978;2023-11-21T13:45:41;42.70;;;21.23;;
20824;SDS011;10573;50.936;6.978;2023-11-21T13:48:08;44.70;;;21.35;;
20824;SDS011;10573;50.936;6.978;2023-11-21T13:50:38;44.50;;;21.42;;
20824;SDS011;10573;50.936;6.978;2023-11-21T13:53:23;48.47;;;21.97;;
20824;SDS011;10573;50.936;6.978;2023-11-21T13:55:52;48.08;;;23.05;;
20824;SDS011;10573;50.936;6.978;2023-11-21T13:58:22;49.58;;;24.60;;
20824;SDS011;10573;50.936;6.978;2023-11-21T14:01:00;47.78;;;24.75;;
20824;SDS011;10573;50.936;6.978;2023-11-21T14:03:31;52.83;;;24.17;;
20824;SDS011;10573;50.936;6.978;2023-11-21T14:06:09;51.15;;;25.08;;
20824;SDS011;10573;50.936;6.978;2023-11-21T14:08:39;54.55;;;25.15;;
20824;SDS011;10573;50.936;6.978;2023-11-21T14:11:07;50.08;;;25.63;;
20824;SDS011;10573;50.936;6.978;2023-11-21T14:13:32;52.10;;;25.15;;
20824;SDS011;10573;50.936;6.978;2023-11-21T14:15:58;52.88;;;26.02;;
20824;SDS011;10573;50.936;6.978;2023-11-21T14:18:26;53.88;;;25.40;;
20824;SDS011;10573;50.936;6.978;2023-11-21T14:21:15;57.13;;;27.52;;
20824;SDS011;10573;50.936;6.978;2023-11-21T14:23:40;52.78;;;26.27;;
20824;SDS011;10573;50.936;6.978;2023-11-21T14:26:05;56.97;;;26.60;;
20824;SDS011;10573;50.936;6.978;2023-11-21T14:28:32;62.70;;;27.92;;
20824;SDS011;10573;50.936;6.978;2023-11-21T14:31:00;57.58;;;26.73;;
20824;SDS011;10573;50.936;6.978;2023-11-21T14:33:25;59.77;;;27.90;;
20824;SDS011;10573;50.936;6.978;2023-11-21T14:35:50;62.28;;;27.95;;
20824;SDS011;10573;50.936;6.978;2023-11-21T14:38:16;63.63;;;29.33;;